createdAt,value
2023-01-08T00:06:35.474Z,59
2023-01-08T00:21:33.625Z,61
2023-01-08T00:36:33.577Z,63
2023-01-08T00:51:33.585Z,65
2023-01-08T01:06:33.538Z,65
2023-01-08T01:21:33.571Z,65
2023-01-08T01:36:33.498Z,64
2023-01-08T01:51:33.540Z,63
2023-01-08T02:06:33.472Z,59
2023-01-08T02:21:33.497Z,56
2023-01-08T02:36:33.419Z,57
2023-01-08T02:51:33.396Z,60
2023-01-08T03:06:33.401Z,62
2023-01-08T03:21:33.418Z,64
2023-01-08T03:36:33.361Z,65
2023-01-08T03:51:33.381Z,65
2023-01-08T04:06:33.316Z,65
2023-01-08T04:21:33.354Z,64
2023-01-08T04:36:33.277Z,64
2023-01-08T04:51:33.306Z,63
2023-01-08T05:06:33.298Z,63
2023-01-08T05:21:33.255Z,63
2023-01-08T05:36:33.221Z,64
2023-01-08T05:51:33.250Z,65
2023-01-08T06:06:33.191Z,65
2023-01-08T06:21:33.206Z,65
2023-01-08T06:36:33.135Z,64
2023-01-08T06:51:33.169Z,63
2023-01-08T07:06:33.112Z,63
2023-01-08T07:21:33.141Z,65
2023-01-08T07:36:33.069Z,68
2023-01-08T07:51:33.097Z,70
2023-01-08T08:06:33.047Z,72
2023-01-08T08:21:33.063Z,73
2023-01-08T08:36:33.038Z,74
2023-01-08T08:51:33.032Z,75
2023-01-08T09:06:33.005Z,76
2023-01-08T09:21:33.026Z,78
2023-01-08T09:36:32.959Z,79
2023-01-08T09:51:32.995Z,80
2023-01-08T10:06:32.949Z,80
2023-01-08T10:21:32.965Z,81
2023-01-08T10:36:32.908Z,82
2023-01-08T10:51:32.960Z,82
2023-01-08T11:06:32.874Z,82
2023-01-08T11:21:32.909Z,83
2023-01-08T11:36:32.840Z,83
2023-01-08T11:51:32.879Z,83
2023-01-08T12:06:32.827Z,84
2023-01-08T12:21:32.881Z,84
2023-01-08T12:36:32.784Z,84
2023-01-08T12:51:32.815Z,84
2023-01-08T13:06:32.767Z,84
2023-01-08T13:21:32.794Z,85
2023-01-08T13:36:32.732Z,85
2023-01-08T13:51:34.996Z,85
2023-01-08T14:06:32.705Z,85
2023-01-08T14:21:32.723Z,85
2023-01-08T14:36:32.673Z,85
2023-01-08T14:51:32.678Z,86
2023-01-08T15:06:32.631Z,86
2023-01-08T15:21:32.653Z,86
2023-01-08T15:36:32.606Z,87
2023-01-08T15:51:32.620Z,87
2023-01-08T16:06:32.579Z,87
2023-01-08T16:21:32.599Z,88
2023-01-08T16:36:32.547Z,88
2023-01-08T16:51:32.567Z,88
2023-01-08T17:06:32.509Z,88
2023-01-08T17:21:32.529Z,88
2023-01-08T17:36:32.491Z,89
2023-01-08T17:51:32.538Z,89
2023-01-08T18:06:32.441Z,89
2023-01-08T18:21:32.477Z,89
2023-01-08T18:36:32.420Z,89
2023-01-08T18:51:32.466Z,89
2023-01-08T19:06:32.409Z,89
2023-01-08T19:21:32.401Z,89
2023-01-08T19:36:32.368Z,89
2023-01-08T19:51:32.392Z,89
2023-01-08T20:06:32.331Z,89
2023-01-08T20:21:32.359Z,89
2023-01-08T20:36:32.297Z,89
2023-01-08T20:51:32.321Z,89
2023-01-08T21:06:32.287Z,89
2023-01-08T21:21:32.348Z,89
2023-01-08T21:36:32.296Z,88
2023-01-08T21:51:32.257Z,89
2023-01-08T22:06:32.215Z,89
2023-01-08T22:21:32.181Z,89
2023-01-08T22:36:32.179Z,89
2023-01-08T22:36:32.183Z,89
2023-01-08T22:51:32.177Z,89
2023-01-08T23:06:32.155Z,89
2023-01-08T23:21:32.163Z,89
2023-01-08T23:36:32.119Z,89
2023-01-08T23:51:32.135Z,89
